createdAt,value
2018-11-02T00:02:01.685Z,11.43
2018-11-02T00:05:25.435Z,11.03
2018-11-02T00:08:42.050Z,11.40
2018-11-02T00:11:58.704Z,17.93
2018-11-02T00:15:14.601Z,12.27
2018-11-02T00:18:31.226Z,15.40
2018-11-02T00:21:36.127Z,14.13
2018-11-02T00:24:41.067Z,15.07
2018-11-02T00:28:04.821Z,15.33
2018-11-02T00:31:24.087Z,15.80
2018-11-02T00:37:58.730Z,15.70
2018-11-02T00:41:15.066Z,13.87
2018-11-02T00:44:31.212Z,12.80
2018-11-02T00:47:36.157Z,12.80
2018-11-02T00:51:00.026Z,13.93
2018-11-02T00:54:23.781Z,15.93
2018-11-02T00:57:39.615Z,12.30
2018-11-02T01:00:56.137Z,12.90
2018-11-02T01:04:01.117Z,15.13
2018-11-02T01:07:06.611Z,13.27
2018-11-02T01:10:30.330Z,12.80
2018-11-02T01:13:46.696Z,15.67
2018-11-02T01:17:02.709Z,12.73
2018-11-02T01:23:33.247Z,14.63
2018-11-02T01:26:49.155Z,16.30
2018-11-02T01:30:05.688Z,17.23
2018-11-02T01:33:10.587Z,15.43
2018-11-02T01:36:15.397Z,13.30
2018-11-02T01:39:39.171Z,13.73
2018-11-02T01:43:01.465Z,11.97
2018-11-02T01:46:00.816Z,10.63
2018-11-02T01:52:30.507Z,12.63
2018-11-02T01:55:46.287Z,13.50
2018-11-02T01:59:01.953Z,12.70
2018-11-02T02:02:18.570Z,17.17
2018-11-02T02:05:34.291Z,12.20
2018-11-02T02:12:11.313Z,16.43
2018-11-02T02:15:27.227Z,12.70
2018-11-02T02:18:43.872Z,11.50
2018-11-02T02:21:37.478Z,13.53
2018-11-02T02:25:01.453Z,13.23
2018-11-02T02:28:06.350Z,11.23
2018-11-02T02:31:11.286Z,12.53
2018-11-02T02:34:35.019Z,12.47
2018-11-02T02:37:59.105Z,11.87
2018-11-02T02:41:14.802Z,11.67
2018-11-02T02:44:19.877Z,13.23
2018-11-02T02:47:43.587Z,13.40
2018-11-02T02:50:48.713Z,11.70
2018-11-02T02:57:17.409Z,13.67
2018-11-02T03:00:54.881Z,19.80
2018-11-02T03:03:46.422Z,10.70
2018-11-02T03:06:51.297Z,12.13
2018-11-02T03:10:15.306Z,12.10
2018-11-02T03:13:39.052Z,10.07
2018-11-02T03:16:54.757Z,10.40
2018-11-02T03:20:12.111Z,12.37
2018-11-02T03:23:28.627Z,11.63
2018-11-02T03:26:44.931Z,10.47
2018-11-02T03:29:49.819Z,11.43
2018-11-02T03:32:54.657Z,9.90
2018-11-02T03:36:18.382Z,9.03
2018-11-02T03:39:42.048Z,7.70
2018-11-02T03:43:00.868Z,10.17
2018-11-02T03:46:06.096Z,7.90
2018-11-02T03:49:29.961Z,9.03
2018-11-02T03:52:53.688Z,8.87
2018-11-02T03:56:10.306Z,8.63
2018-11-02T03:59:26.617Z,9.53
2018-11-02T04:02:31.487Z,6.23
2018-11-02T04:05:55.152Z,8.50
2018-11-02T04:09:11.037Z,7.00
2018-11-02T04:12:27.542Z,7.10
2018-11-02T04:15:32.431Z,8.23
2018-11-02T04:18:37.674Z,5.80
2018-11-02T04:22:01.387Z,6.47
2018-11-02T04:25:06.498Z,6.63
2018-11-02T04:28:30.234Z,6.33
2018-11-02T04:31:54.003Z,5.33
2018-11-02T04:35:10.235Z,6.17
2018-11-02T04:38:15.057Z,5.60
2018-11-02T04:41:31.698Z,6.17
2018-11-02T04:44:24.797Z,7.40
2018-11-02T04:47:48.522Z,6.40
2018-11-02T04:51:12.432Z,6.60
2018-11-02T04:54:28.832Z,4.70
2018-11-02T04:57:45.194Z,5.13
2018-11-02T05:01:01.181Z,6.63
2018-11-02T05:04:06.380Z,7.77
2018-11-02T05:07:30.094Z,5.80
2018-11-02T05:10:53.879Z,6.90
2018-11-02T05:14:09.583Z,7.03
2018-11-02T05:17:25.393Z,7.50
2018-11-02T05:20:43.696Z,8.57
2018-11-02T05:23:54.143Z,7.07
2018-11-02T05:27:10.363Z,6.70
2018-11-02T05:30:27.131Z,5.97
2018-11-02T05:33:43.618Z,10.70
2018-11-02T05:36:59.848Z,9.83
2018-11-02T05:40:16.323Z,8.90
2018-11-02T05:43:40.039Z,8.17
2018-11-02T05:47:03.973Z,9.23
2018-11-02T05:50:20.201Z,10.97
2018-11-02T05:53:25.149Z,8.60
2018-11-02T05:56:30.045Z,9.30
2018-11-02T05:59:53.772Z,10.37
2018-11-02T06:03:17.474Z,18.43
2018-11-02T06:06:33.672Z,10.30
2018-11-02T06:09:49.014Z,11.27
2018-11-02T06:12:53.933Z,8.00
2018-11-02T06:15:58.773Z,13.27
2018-11-02T06:19:22.873Z,10.67
2018-11-02T06:22:46.668Z,8.83
2018-11-02T06:26:03.679Z,9.50
2018-11-02T06:29:08.587Z,11.80
2018-11-02T06:32:13.737Z,12.30
2018-11-02T06:35:37.634Z,10.17
2018-11-02T06:38:42.612Z,12.93
2018-11-02T06:41:47.354Z,12.10
2018-11-02T06:45:11.883Z,13.87
2018-11-02T06:48:52.852Z,13.40
2018-11-02T06:51:59.424Z,15.10
2018-11-02T06:55:15.660Z,13.00
2018-11-02T06:58:32.059Z,16.23
2018-11-02T07:01:47.813Z,14.93
2018-11-02T07:05:03.810Z,14.73
2018-11-02T07:08:20.167Z,16.47
2018-11-02T07:11:24.960Z,15.57
2018-11-02T07:14:29.903Z,16.60
2018-11-02T07:17:34.838Z,16.73
2018-11-02T07:20:58.550Z,16.90
2018-11-02T07:24:22.235Z,18.80
2018-11-02T07:27:38.116Z,17.17
2018-11-02T07:30:54.632Z,19.83
2018-11-02T07:34:11.273Z,18.80
2018-11-02T07:37:27.614Z,19.77
2018-11-02T07:40:32.618Z,22.97
2018-11-02T07:43:37.505Z,19.80
2018-11-02T07:46:56.390Z,19.37
2018-11-02T07:49:47.598Z,17.50
2018-11-02T07:52:52.369Z,18.60
2018-11-02T07:56:16.062Z,19.27
2018-11-02T07:59:39.851Z,19.67
2018-11-02T08:02:55.780Z,23.53
2018-11-02T08:06:11.710Z,20.67
2018-11-02T08:09:16.639Z,19.50
2018-11-02T08:12:40.357Z,22.33
2018-11-02T08:16:04.032Z,17.30
2018-11-02T08:19:20.046Z,20.20
2018-11-02T08:22:36.482Z,20.27
2018-11-02T08:25:52.807Z,19.27
2018-11-02T08:29:08.811Z,19.20
2018-11-02T08:32:25.285Z,20.77
2018-11-02T08:35:41.902Z,21.80
2018-11-02T08:38:46.877Z,18.70
2018-11-02T08:41:51.747Z,20.03
2018-11-02T08:45:15.466Z,22.20
2018-11-02T08:48:32.229Z,19.67
2018-11-02T08:51:48.542Z,17.40
2018-11-02T08:55:13.686Z,16.83
2018-11-02T08:58:16.719Z,18.87
2018-11-02T09:01:21.415Z,16.67
2018-11-02T09:04:45.186Z,19.13
2018-11-02T09:08:21.037Z,23.80
2018-11-02T09:11:25.742Z,16.10
2018-11-02T09:14:44.187Z,19.30
2018-11-02T09:17:59.861Z,14.50
2018-11-02T09:21:15.816Z,15.27
2018-11-02T09:24:32.517Z,14.10
2018-11-02T09:27:48.626Z,18.07
2018-11-02T09:31:04.280Z,14.70
2018-11-02T09:34:20.307Z,14.40
2018-11-02T09:37:43.857Z,15.23
2018-11-02T09:41:07.633Z,12.40
2018-11-02T09:44:24.256Z,12.00
2018-11-02T09:47:41.641Z,12.20
2018-11-02T09:50:56.493Z,13.17
2018-11-02T09:54:12.421Z,15.33
2018-11-02T09:57:28.809Z,17.63
2018-11-02T10:00:45.435Z,16.90
2018-11-02T10:04:01.973Z,18.23
2018-11-02T10:07:18.568Z,18.60
2018-11-02T10:13:51.364Z,22.40
2018-11-02T10:17:08.107Z,23.53
2018-11-02T10:20:23.849Z,24.63
2018-11-02T10:23:40.637Z,19.80
2018-11-02T10:26:56.361Z,22.13
2018-11-02T10:30:13.914Z,19.40
2018-11-02T10:33:30.419Z,21.30
2018-11-02T10:36:36.198Z,18.47
2018-11-02T10:39:41.103Z,21.67
2018-11-02T10:43:08.714Z,16.47
2018-11-02T10:46:32.443Z,14.60
2018-11-02T10:49:37.358Z,14.60
2018-11-02T10:53:01.143Z,19.27
2018-11-02T10:56:17.037Z,15.40
2018-11-02T10:59:21.966Z,14.20
2018-11-02T11:02:45.433Z,15.03
2018-11-02T11:05:50.373Z,16.70
2018-11-02T11:09:14.463Z,14.20
2018-11-02T11:12:31.197Z,14.83
2018-11-02T11:15:46.811Z,16.83
2018-11-02T11:19:03.228Z,17.67
2018-11-02T11:22:19.759Z,15.30
2018-11-02T11:25:35.912Z,15.20
2018-11-02T11:28:52.235Z,17.77
2018-11-02T11:32:08.971Z,14.10
2018-11-02T11:35:24.711Z,17.03
2018-11-02T11:38:41.281Z,17.70
2018-11-02T11:42:04.738Z,19.07
2018-11-02T11:45:28.542Z,16.17
2018-11-02T11:48:44.222Z,17.10
2018-11-02T11:52:00.363Z,15.10
2018-11-02T11:55:17.702Z,15.13
2018-11-02T11:58:33.486Z,17.43
2018-11-02T12:01:53.367Z,14.47
2018-11-02T12:05:09.526Z,15.77
2018-11-02T12:08:25.253Z,16.07
2018-11-02T12:11:42.727Z,18.87
2018-11-02T12:14:58.788Z,20.90
2018-11-02T12:18:15.018Z,22.87
2018-11-02T12:21:31.661Z,21.23
2018-11-02T12:24:47.702Z,16.90
2018-11-02T12:27:53.218Z,21.73
2018-11-02T12:30:58.317Z,21.83
2018-11-02T12:34:03.145Z,22.57
2018-11-02T12:37:08.031Z,15.90
2018-11-02T12:40:31.897Z,12.57
2018-11-02T12:43:56.188Z,15.00
2018-11-02T12:47:12.466Z,15.80
2018-11-02T12:50:36.416Z,12.67
2018-11-02T12:53:41.249Z,15.07
2018-11-02T12:57:04.964Z,14.43
2018-11-02T13:00:29.338Z,13.57
2018-11-02T13:03:45.675Z,13.80
2018-11-02T13:06:50.625Z,16.50
2018-11-02T13:10:15.519Z,15.43
2018-11-02T13:16:55.972Z,17.17
2018-11-02T13:20:12.758Z,22.43
2018-11-02T13:23:29.243Z,17.03
2018-11-02T13:26:45.818Z,16.50
2018-11-02T13:29:50.683Z,17.20
2018-11-02T13:32:55.538Z,16.57
2018-11-02T13:36:33.789Z,19.40
2018-11-02T13:39:43.258Z,18.43
2018-11-02T13:42:59.030Z,21.10
2018-11-02T13:46:03.823Z,15.80
2018-11-02T13:49:27.598Z,16.77
2018-11-02T13:52:32.804Z,17.10
2018-11-02T13:55:56.549Z,16.07
2018-11-02T13:59:01.497Z,17.60
2018-11-02T14:02:06.849Z,13.70
2018-11-02T14:05:30.580Z,16.50
2018-11-02T14:08:54.463Z,14.33
2018-11-02T14:12:18.259Z,13.20
2018-11-02T14:15:23.162Z,11.43
2018-11-02T14:18:28.148Z,13.97
2018-11-02T14:21:32.913Z,13.83
2018-11-02T14:24:56.625Z,10.90
2018-11-02T14:28:13.214Z,12.03
2018-11-02T14:31:29.114Z,12.37
2018-11-02T14:38:04.289Z,12.17
2018-11-02T14:41:20.700Z,9.93
2018-11-02T14:44:36.556Z,10.03
2018-11-02T14:47:53.234Z,9.07
2018-11-02T14:50:58.118Z,10.03
2018-11-02T14:54:04.001Z,9.50
2018-11-02T14:57:08.877Z,8.20
2018-11-02T15:00:13.785Z,6.20
2018-11-02T15:03:37.573Z,8.43
2018-11-02T15:06:42.438Z,8.70
2018-11-02T15:09:47.337Z,14.27
2018-11-02T15:13:22.884Z,6.87
2018-11-02T15:16:27.435Z,6.13
2018-11-02T15:19:32.729Z,5.33
2018-11-02T15:22:56.508Z,10.00
2018-11-02T15:26:20.266Z,6.23
2018-11-02T15:29:36.539Z,7.23
2018-11-02T15:32:52.471Z,6.00
2018-11-02T15:35:57.347Z,7.40
2018-11-02T15:39:21.060Z,9.60
2018-11-02T15:42:59.496Z,9.10
2018-11-02T15:46:00.643Z,11.70
2018-11-02T15:49:16.546Z,6.30
2018-11-02T15:52:32.427Z,7.37
2018-11-02T15:55:48.544Z,7.17
2018-11-02T15:59:04.305Z,6.40
2018-11-02T16:02:20.147Z,12.63
2018-11-02T16:05:35.908Z,10.73
2018-11-02T16:08:40.901Z,11.23
2018-11-02T16:12:04.675Z,5.40
2018-11-02T16:15:28.369Z,8.10
2018-11-02T16:18:52.144Z,7.33
2018-11-02T16:21:57.015Z,6.00
2018-11-02T16:25:20.771Z,5.10
2018-11-02T16:28:37.144Z,7.47
2018-11-02T16:31:53.515Z,6.83
2018-11-02T16:35:09.507Z,9.13
2018-11-02T16:38:25.282Z,7.70
2018-11-02T16:41:41.922Z,4.90
2018-11-02T16:44:58.326Z,5.27
2018-11-02T16:48:15.131Z,5.30
2018-11-02T16:51:19.982Z,6.40
2018-11-02T16:54:25.035Z,7.77
2018-11-02T16:57:41.664Z,8.50
2018-11-02T17:00:34.850Z,8.40
2018-11-02T17:03:58.665Z,6.70
2018-11-02T17:10:34.378Z,8.00
2018-11-02T17:13:50.546Z,16.30
2018-11-02T17:17:06.397Z,7.27
2018-11-02T17:20:23.131Z,7.80
2018-11-02T17:23:39.461Z,12.90
2018-11-02T17:26:44.431Z,13.73
2018-11-02T17:29:49.396Z,9.70
2018-11-02T17:32:54.244Z,8.33
2018-11-02T17:36:18.118Z,10.60
2018-11-02T17:39:34.501Z,8.90
2018-11-02T17:42:50.448Z,7.70
2018-11-02T17:46:07.176Z,14.57
2018-11-02T17:49:23.936Z,12.30
2018-11-02T17:52:40.642Z,9.20
2018-11-02T17:55:56.537Z,11.70
2018-11-02T17:59:12.566Z,10.23
2018-11-02T18:02:29.264Z,10.33
2018-11-02T18:05:48.281Z,10.60
2018-11-02T18:09:09.891Z,16.13
2018-11-02T18:12:33.387Z,11.90
2018-11-02T18:15:26.635Z,13.40
2018-11-02T18:18:50.466Z,10.93
2018-11-02T18:22:14.200Z,13.90
2018-11-02T18:25:29.916Z,12.70
2018-11-02T18:28:46.185Z,12.43
2018-11-02T18:32:02.167Z,14.03
2018-11-02T18:35:18.061Z,18.10
2018-11-02T18:38:34.803Z,14.53
2018-11-02T18:41:51.157Z,13.37
2018-11-02T18:45:06.887Z,13.00
2018-11-02T18:48:23.600Z,12.67
2018-11-02T18:51:40.527Z,16.10
2018-11-02T18:54:57.051Z,16.17
2018-11-02T18:58:13.128Z,15.47
2018-11-02T19:01:29.539Z,14.63
2018-11-02T19:04:45.952Z,12.83
2018-11-02T19:08:01.743Z,13.20
2018-11-02T19:11:17.652Z,19.20
2018-11-02T19:14:34.124Z,13.63
2018-11-02T19:17:50.768Z,13.23
2018-11-02T19:21:07.306Z,20.47
2018-11-02T19:24:23.925Z,24.27
2018-11-02T19:27:29.094Z,16.60
2018-11-02T19:30:52.756Z,14.63
2018-11-02T19:34:09.106Z,21.70
2018-11-02T19:37:25.709Z,17.37
2018-11-02T19:40:49.551Z,18.77
2018-11-02T19:44:05.714Z,19.43
2018-11-02T19:47:22.263Z,25.73
2018-11-02T19:50:38.304Z,14.37
2018-11-02T19:53:54.917Z,24.03
2018-11-02T19:57:11.558Z,17.10
2018-11-02T20:00:27.538Z,17.00
2018-11-02T20:03:44.253Z,18.47
2018-11-02T20:07:00.206Z,19.23
2018-11-02T20:10:17.602Z,16.87
2018-11-02T20:13:33.668Z,18.13
2018-11-02T20:16:49.534Z,22.30
2018-11-02T20:20:05.370Z,21.30
2018-11-02T20:23:21.374Z,21.63
2018-11-02T20:26:37.185Z,24.73
2018-11-02T20:29:53.176Z,24.83
2018-11-02T20:33:09.741Z,24.30
2018-11-02T20:36:33.351Z,24.43
2018-11-02T20:39:57.094Z,22.47
2018-11-02T20:43:13.244Z,22.20
2018-11-02T20:46:29.063Z,23.13
2018-11-02T20:49:45.454Z,24.40
2018-11-02T20:53:01.268Z,24.23
2018-11-02T20:56:17.214Z,27.43
2018-11-02T20:59:33.064Z,25.10
2018-11-02T21:02:55.779Z,29.07
2018-11-02T21:06:11.509Z,27.37
2018-11-02T21:09:28.649Z,22.60
2018-11-02T21:12:44.129Z,25.70
2018-11-02T21:16:00.734Z,22.00
2018-11-02T21:19:16.632Z,27.30
2018-11-02T21:22:33.264Z,21.57
2018-11-02T21:25:48.992Z,15.87
2018-11-02T21:29:05.700Z,24.30
2018-11-02T21:32:21.652Z,18.93
2018-11-02T21:38:54.630Z,22.50
2018-11-02T21:42:11.110Z,20.20
2018-11-02T21:45:27.588Z,21.23
2018-11-02T21:48:43.392Z,27.87
2018-11-02T21:51:59.585Z,26.47
2018-11-02T21:55:16.039Z,30.87
2018-11-02T21:58:31.927Z,32.60
2018-11-02T22:01:36.729Z,33.63
2018-11-02T22:05:00.474Z,35.80
2018-11-02T22:08:16.193Z,33.90
2018-11-02T22:11:21.211Z,32.03
2018-11-02T22:14:44.928Z,34.30
2018-11-02T22:18:08.816Z,35.00
2018-11-02T22:21:27.359Z,40.97
2018-11-02T22:24:43.915Z,32.97
2018-11-02T22:27:59.820Z,33.97
2018-11-02T22:31:16.362Z,33.23
2018-11-02T22:34:39.749Z,31.40
2018-11-02T22:38:03.548Z,32.10
2018-11-02T22:41:20.099Z,31.70
2018-11-02T22:44:24.973Z,36.67
2018-11-02T22:47:30.019Z,32.37
2018-11-02T22:50:46.463Z,36.07
2018-11-02T22:54:10.729Z,38.10
2018-11-02T22:57:15.045Z,33.47
2018-11-02T23:00:31.678Z,35.40
2018-11-02T23:03:36.529Z,31.50
2018-11-02T23:06:41.506Z,36.50
2018-11-02T23:10:05.850Z,44.40
2018-11-02T23:13:10.719Z,41.67
2018-11-02T23:16:15.608Z,35.07
2018-11-02T23:19:39.349Z,32.17
2018-11-02T23:22:55.208Z,36.23
2018-11-02T23:26:00.119Z,34.07
2018-11-02T23:29:23.917Z,35.37
2018-11-02T23:32:47.823Z,36.17
2018-11-02T23:36:11.567Z,41.10
2018-11-02T23:39:27.734Z,38.87
2018-11-02T23:42:44.335Z,37.47
2018-11-02T23:45:49.355Z,39.87
2018-11-02T23:49:06.210Z,32.90
2018-11-02T23:51:59.173Z,46.90
2018-11-02T23:58:27.784Z,36.57
